Dunsbach Ferry, New York
Current Conditions -  °F | °C
As of 1:14 PM on Thursday 27 Nov 2014 (Local Time) from KALB Reporting Station
Overcast Overcast  
Wind Chill: 26°   Ceiling: 3200
Heat Index: 32°   Visibility: 10mi
Dew Point: 24°   Wind: 6mph
Humidity: 73%   Direction: 10°N
Pressure: 30.01"   Gusts: NA
Location:  42.7824°N, 73.7303°W
Report Text: KALB 271814Z 01005KT 10SM FEW012 SCT022 OVC032 00/M04 A3001 RMK AO2 SNE13 SCT V BKN P0000 T00001044
Loading
Personal Weather Stations






























Interactive Weather Map New forecast layout! Learn more

10-Day Weather Forecast

Advertisements
Track Severe Weather on mobile